Time;durP1;ratioP1;P1;durP2;ratioP2;P2;SDS_P1;SDS_P2;PMS_P1;PMS_P2;Temp;Humidity;BMP_temperature;BMP_pressure;BME280_temperature;BME280_humidity;BME280_pressure;Samples;Min_cycle;Max_cycle;Signal;HPM_P1;HPM_P2
2022/01/25 00:08:19;;;;;;;;;;;1.30;99.90;;;;;;5091077;28;19912;-56
2022/01/25 00:33:32;;;;;;;;;;;0.70;99.90;;;;;;5090493;28;19986;-56
2022/01/25 00:35:59;;;;;;;;;;;0.70;99.90;;;;;;5090603;28;19907;-55
2022/01/25 00:38:24;;;;;;;;;;;0.80;99.90;;;;;;5090154;28;20007;-57
2022/01/25 00:40:50;;;;;;;;;;;0.80;99.90;;;;;;5090431;28;19983;-56
2022/01/25 00:43:15;;;;;;;;;;;0.80;99.90;;;;;;5091029;28;19916;-56
2022/01/25 00:45:41;;;;;;;;;;;0.70;99.90;;;;;;5071872;28;19916;-55
2022/01/25 00:48:09;;;;;;;;;;;0.70;99.90;;;;;;5085746;28;20402;-56
2022/01/25 00:50:41;;;;;;;;;;;0.70;99.90;;;;;;5090932;28;19912;-57
2022/01/25 00:55:32;;;;;;;;;;;0.70;99.90;;;;;;5091997;28;19908;-56
2022/01/25 00:57:59;;;;;;;;;;;0.70;99.90;;;;;;5090060;28;19908;-56
2022/01/25 01:00:25;;;;;;;;;;;0.60;99.90;;;;;;5089777;28;19916;-54
2022/01/25 01:02:51;;;;;;;;;;;0.60;99.90;;;;;;5090231;28;19916;-56
2022/01/25 01:05:17;;;;;;;;;;;0.60;99.90;;;;;;5090825;28;19919;-56
2022/01/25 01:07:43;;;;;;;;;;;0.70;99.90;;;;;;5090627;28;19908;-55
2022/01/25 01:10:09;;;;;;;;;;;0.60;99.90;;;;;;5089900;28;19912;-56
2022/01/25 01:15:27;;;;;;;;;;;0.60;99.90;;;;;;5089675;28;20010;-56
2022/01/25 01:29:06;;;;;;;;;;;0.70;99.90;;;;;;5088266;28;19947;-57
2022/01/25 01:31:55;;;;;;;;;;;0.70;99.90;;;;;;5090698;28;19995;-56
2022/01/25 01:44:51;;;;;;;;;;;0.70;99.90;;;;;;5093624;28;19912;-56
2022/01/25 01:47:33;;;;;;;;;;;0.70;99.90;;;;;;5078788;28;19912;-56
2022/01/25 01:50:01;;;;;;;;;;;0.70;99.90;;;;;;5094084;28;19916;-57
2022/01/25 01:52:27;;;;;;;;;;;0.70;99.90;;;;;;5094328;28;19966;-56
2022/01/25 01:54:53;;;;;;;;;;;0.60;99.90;;;;;;5093428;28;19996;-57
2022/01/25 01:57:18;;;;;;;;;;;0.60;99.90;;;;;;5093147;28;19995;-57
2022/01/25 01:59:44;;;;;;;;;;;0.50;99.90;;;;;;5093188;28;19995;-56
2022/01/25 02:02:10;;;;;;;;;;;0.50;99.90;;;;;;5093564;28;20273;-58
2022/01/25 02:04:35;;;;;;;;;;;0.40;99.90;;;;;;5093976;28;20616;-56
2022/01/25 02:07:01;;;;;;;;;;;0.40;99.90;;;;;;5093042;28;19908;-57
2022/01/25 02:09:26;;;;;;;;;;;0.40;99.90;;;;;;5075283;28;19916;-55
2022/01/25 02:11:52;;;;;;;;;;;0.40;99.90;;;;;;5093401;28;19908;-57
2022/01/25 02:14:18;;;;;;;;;;;0.40;99.90;;;;;;5092531;28;19927;-56
2022/01/25 02:24:45;;;;;;;;;;;0.30;99.90;;;;;;5093416;28;20422;-56
2022/01/25 02:27:10;;;;;;;;;;;0.30;99.90;;;;;;5092716;28;19912;-56
2022/01/25 02:29:36;;;;;;;;;;;0.20;99.90;;;;;;5092467;28;19927;-57
2022/01/25 02:32:02;;;;;;;;;;;0.30;99.90;;;;;;5093054;28;19912;-57
2022/01/25 02:34:28;;;;;;;;;;;0.20;99.90;;;;;;5093254;28;19961;-55
2022/01/25 02:36:57;;;;;;;;;;;0.20;99.90;;;;;;5092662;28;20326;-56
2022/01/25 02:39:23;;;;;;;;;;;0.10;99.90;;;;;;5092354;28;19912;-55
2022/01/25 02:41:50;;;;;;;;;;;0.10;99.90;;;;;;5092746;28;19923;-55
2022/01/25 02:44:23;;;;;;;;;;;0.10;99.90;;;;;;5090631;28;20475;-53
2022/01/25 02:49:16;;;;;;;;;;;0.10;99.90;;;;;;5092959;28;19908;-56
2022/01/25 02:51:43;;;;;;;;;;;0.00;99.90;;;;;;5091882;28;20371;-56
2022/01/25 02:56:45;;;;;;;;;;;0.00;99.90;;;;;;5119992;22;19924;-56
2022/01/25 02:59:12;;;;;;;;;;;0.00;99.90;;;;;;5034545;28;19952;-56
2022/01/25 03:01:38;;;;;;;;;;;0.00;99.90;;;;;;5034622;28;19909;-54
2022/01/25 03:04:05;;;;;;;;;;;0.00;99.90;;;;;;5051742;28;19913;-52
2022/01/25 03:06:30;;;;;;;;;;;-0.10;99.90;;;;;;5051689;28;19999;-55
2022/01/25 03:08:56;;;;;;;;;;;-0.10;99.90;;;;;;5050660;28;20005;-57
2022/01/25 03:11:23;;;;;;;;;;;-0.10;99.90;;;;;;5051890;28;19920;-53
2022/01/25 03:13:51;;;;;;;;;;;0.00;99.90;;;;;;5051777;28;19921;-55
2022/01/25 03:16:24;;;;;;;;;;;0.00;99.90;;;;;;5052095;28;20364;-56
2022/01/25 03:18:50;;;;;;;;;;;0.00;99.90;;;;;;5051984;28;19924;-55
2022/01/25 03:21:35;;;;;;;;;;;0.10;99.90;;;;;;5051376;28;19965;-57
2022/01/25 03:24:02;;;;;;;;;;;0.10;99.90;;;;;;5051921;28;19932;-56
2022/01/25 03:26:27;;;;;;;;;;;0.10;99.90;;;;;;5051081;28;19913;-52
2022/01/25 03:28:53;;;;;;;;;;;0.20;99.90;;;;;;5051302;28;20270;-55
2022/01/25 03:31:19;;;;;;;;;;;0.20;99.90;;;;;;5052614;28;19958;-56
2022/01/25 03:33:45;;;;;;;;;;;0.20;99.90;;;;;;5051382;28;19932;-57
2022/01/25 03:36:11;;;;;;;;;;;0.30;99.90;;;;;;5050958;28;19942;-56
2022/01/25 03:38:38;;;;;;;;;;;0.30;99.90;;;;;;5051483;28;19912;-55
2022/01/25 03:41:11;;;;;;;;;;;0.30;99.90;;;;;;5050679;28;19927;-57
2022/01/25 03:43:37;;;;;;;;;;;0.40;99.90;;;;;;5048051;28;19909;-57
2022/01/25 03:46:10;;;;;;;;;;;0.40;99.90;;;;;;5051300;28;19912;-55
2022/01/25 03:51:01;;;;;;;;;;;0.40;99.90;;;;;;5050644;28;20400;-56
2022/01/25 03:53:27;;;;;;;;;;;0.50;99.90;;;;;;5051540;28;19921;-57
2022/01/25 03:55:52;;;;;;;;;;;0.50;99.90;;;;;;5061466;28;20489;-57
2022/01/25 03:58:20;;;;;;;;;;;0.50;99.90;;;;;;5069319;28;20011;-57
2022/01/25 04:00:45;;;;;;;;;;;0.60;99.90;;;;;;5070913;28;20249;-57
2022/01/25 04:03:19;;;;;;;;;;;0.60;99.90;;;;;;5070246;28;19923;-57
2022/01/25 04:08:11;;;;;;;;;;;0.60;99.90;;;;;;5071314;28;20370;-57
2022/01/25 04:10:36;;;;;;;;;;;0.70;99.90;;;;;;5071253;28;19923;-58
2022/01/25 04:13:03;;;;;;;;;;;0.70;99.90;;;;;;5070698;28;19935;-57
2022/01/25 04:15:29;;;;;;;;;;;0.80;99.90;;;;;;5062591;28;20335;-57
2022/01/25 04:18:23;;;;;;;;;;;0.80;99.90;;;;;;5070547;28;19908;-53
2022/01/25 04:21:01;;;;;;;;;;;0.80;99.90;;;;;;5070635;28;19917;-57
2022/01/25 04:26:10;;;;;;;;;;;0.80;99.90;;;;;;5055449;28;20046;-57
2022/01/25 04:28:36;;;;;;;;;;;0.80;99.90;;;;;;5071425;28;20023;-57
2022/01/25 04:31:01;;;;;;;;;;;0.80;99.90;;;;;;5070159;28;20356;-56
2022/01/25 04:33:38;;;;;;;;;;;0.80;99.90;;;;;;5070342;28;20074;-56
2022/01/25 04:49:35;;;;;;;;;;;0.80;99.90;;;;;;5071158;28;19918;-57
2022/01/25 04:52:08;;;;;;;;;;;0.80;99.90;;;;;;5069901;28;19909;-57
2022/01/25 05:02:20;;;;;;;;;;;0.90;99.90;;;;;;5069933;28;19912;-58
2022/01/25 05:04:55;;;;;;;;;;;0.90;99.90;;;;;;5053102;28;19915;-57
2022/01/25 05:10:19;;;;;;;;;;;0.90;99.90;;;;;;5035134;28;19913;-55
2022/01/25 05:13:04;;;;;;;;;;;0.90;99.90;;;;;;5028211;28;20451;-57
2022/01/25 05:18:19;;;;;;;;;;;0.70;99.90;;;;;;5035708;28;20004;-57
2022/01/25 05:23:29;;;;;;;;;;;0.70;99.90;;;;;;5027461;28;20507;-54
2022/01/25 05:25:54;;;;;;;;;;;0.70;99.90;;;;;;5033369;28;19913;-57
2022/01/25 05:28:20;;;;;;;;;;;0.70;99.90;;;;;;5028746;28;19921;-57
2022/01/25 05:30:46;;;;;;;;;;;0.80;99.90;;;;;;5027753;28;19925;-57
2022/01/25 05:33:11;;;;;;;;;;;0.80;99.90;;;;;;5035489;28;19932;-57
2022/01/25 05:35:37;;;;;;;;;;;0.80;99.90;;;;;;5035118;28;19912;-57
2022/01/25 05:38:02;;;;;;;;;;;0.80;99.90;;;;;;5032046;28;20302;-58
2022/01/25 05:40:57;;;;;;;;;;;0.80;99.90;;;;;;5036324;28;19976;-57
2022/01/25 05:48:28;;;;;;;;;;;0.90;99.90;;;;;;5067951;28;20434;-56
2022/01/25 05:50:55;;;;;;;;;;;1.00;99.90;;;;;;5072841;28;19955;-57
2022/01/25 05:53:20;;;;;;;;;;;1.00;99.90;;;;;;5073717;28;19993;-57
2022/01/25 05:55:46;;;;;;;;;;;1.00;99.90;;;;;;5072322;28;20350;-58
2022/01/25 05:58:11;;;;;;;;;;;1.00;99.90;;;;;;5073794;28;19917;-57
2022/01/25 06:00:37;;;;;;;;;;;0.90;99.90;;;;;;5072311;28;19908;-57
2022/01/25 06:03:04;;;;;;;;;;;1.00;99.90;;;;;;5072667;28;19912;-58
2022/01/25 06:05:30;;;;;;;;;;;1.00;99.90;;;;;;5072326;28;19923;-57
2022/01/25 06:07:56;;;;;;;;;;;1.10;99.90;;;;;;5072936;28;19912;-56
2022/01/25 06:10:21;;;;;;;;;;;1.10;99.90;;;;;;5073027;28;19912;-57
2022/01/25 06:12:47;;;;;;;;;;;1.10;99.90;;;;;;5072363;28;19955;-57
2022/01/25 06:15:12;;;;;;;;;;;1.10;99.90;;;;;;5072012;28;19913;-57
2022/01/25 06:17:38;;;;;;;;;;;1.10;99.90;;;;;;5054123;28;20012;-59
2022/01/25 06:20:04;;;;;;;;;;;1.20;99.90;;;;;;5071979;28;19942;-58
2022/01/25 06:22:30;;;;;;;;;;;1.10;99.90;;;;;;5072996;28;20339;-57
2022/01/25 06:24:56;;;;;;;;;;;1.10;99.90;;;;;;5071550;28;19915;-55
2022/01/25 06:27:21;;;;;;;;;;;1.20;99.90;;;;;;5072051;28;19948;-56
2022/01/25 06:29:47;;;;;;;;;;;1.10;99.90;;;;;;5071863;28;19913;-56
2022/01/25 06:32:14;;;;;;;;;;;1.10;99.90;;;;;;5072064;28;19912;-57
2022/01/25 06:34:39;;;;;;;;;;;1.20;99.90;;;;;;5072488;28;20419;-55
2022/01/25 06:37:05;;;;;;;;;;;1.20;99.90;;;;;;5071605;28;19951;-59
2022/01/25 06:39:31;;;;;;;;;;;1.20;99.90;;;;;;5071809;28;19912;-58
2022/01/25 06:41:57;;;;;;;;;;;1.30;99.90;;;;;;5071322;28;19912;-58
2022/01/25 06:44:22;;;;;;;;;;;1.30;99.90;;;;;;5071365;28;19909;-59
2022/01/25 06:46:48;;;;;;;;;;;1.30;99.90;;;;;;5072192;28;19912;-57
2022/01/25 06:49:13;;;;;;;;;;;1.30;99.90;;;;;;5072209;28;19917;-58
2022/01/25 06:51:39;;;;;;;;;;;1.30;99.90;;;;;;5071585;28;19956;-59
2022/01/25 06:54:05;;;;;;;;;;;1.30;99.90;;;;;;5071501;28;20377;-59
2022/01/25 06:56:30;;;;;;;;;;;1.30;99.90;;;;;;5071407;28;19935;-56
2022/01/25 06:58:56;;;;;;;;;;;1.30;99.90;;;;;;5071339;28;20265;-58
2022/01/25 07:01:21;;;;;;;;;;;1.30;99.90;;;;;;5072202;28;19908;-57
2022/01/25 07:03:47;;;;;;;;;;;1.30;99.90;;;;;;5053055;28;20361;-57
2022/01/25 07:06:13;;;;;;;;;;;1.40;99.90;;;;;;5071567;28;19912;-59
2022/01/25 07:08:39;;;;;;;;;;;1.30;99.90;;;;;;5071081;28;20003;-57
2022/01/25 07:11:04;;;;;;;;;;;1.40;99.90;;;;;;5071233;28;19952;-59
2022/01/25 07:13:30;;;;;;;;;;;1.40;99.90;;;;;;5071472;28;19917;-56
2022/01/25 07:15:55;;;;;;;;;;;1.40;99.90;;;;;;5071240;28;19924;-57
2022/01/25 07:18:21;;;;;;;;;;;1.40;99.90;;;;;;5070123;28;19920;-56
2022/01/25 07:20:46;;;;;;;;;;;1.40;99.90;;;;;;5061162;28;20391;-57
2022/01/25 07:23:12;;;;;;;;;;;1.30;99.90;;;;;;5070266;28;19912;-57
2022/01/25 07:25:37;;;;;;;;;;;1.40;99.90;;;;;;5072354;28;19916;-57
2022/01/25 07:28:06;;;;;;;;;;;1.40;99.90;;;;;;5065179;28;19916;-56
2022/01/25 07:30:32;;;;;;;;;;;1.40;99.90;;;;;;5065459;28;19978;-56
2022/01/25 07:32:57;;;;;;;;;;;1.40;99.90;;;;;;5070531;28;20400;-56
2022/01/25 07:35:23;;;;;;;;;;;1.40;99.90;;;;;;5071478;28;20355;-52
2022/01/25 07:37:48;;;;;;;;;;;1.40;99.90;;;;;;5052981;28;19912;-69
2022/01/25 07:40:16;;;;;;;;;;;1.50;99.90;;;;;;5071838;28;19952;-71
2022/01/25 07:42:42;;;;;;;;;;;1.50;99.90;;;;;;5069997;28;19919;-69
2022/01/25 07:45:10;;;;;;;;;;;1.40;99.90;;;;;;5063863;28;19913;-68
2022/01/25 07:47:36;;;;;;;;;;;1.50;99.90;;;;;;5065394;28;19913;-66
2022/01/25 07:50:03;;;;;;;;;;;1.50;99.90;;;;;;5068164;28;19921;-69
2022/01/25 07:52:28;;;;;;;;;;;1.50;99.90;;;;;;5071091;28;19953;-70
2022/01/25 07:54:54;;;;;;;;;;;1.50;99.90;;;;;;5069956;28;19921;-66
2022/01/25 07:57:19;;;;;;;;;;;1.50;99.90;;;;;;5069880;28;19927;-70
2022/01/25 07:59:45;;;;;;;;;;;1.50;99.90;;;;;;5070061;28;20418;-67
2022/01/25 08:02:14;;;;;;;;;;;1.50;99.90;;;;;;5069849;28;20008;-68
2022/01/25 08:04:40;;;;;;;;;;;1.50;99.90;;;;;;5067184;28;19909;-71
2022/01/25 08:07:05;;;;;;;;;;;1.50;99.90;;;;;;5070589;28;19909;-68
2022/01/25 08:09:31;;;;;;;;;;;1.50;99.90;;;;;;5070514;28;19920;-70
2022/01/25 08:11:56;;;;;;;;;;;1.50;99.90;;;;;;5070366;28;19912;-69
2022/01/25 08:14:22;;;;;;;;;;;1.50;99.90;;;;;;5065573;28;19921;-70
2022/01/25 08:16:48;;;;;;;;;;;1.50;99.90;;;;;;5068627;28;20011;-70
2022/01/25 08:19:14;;;;;;;;;;;1.50;99.90;;;;;;5066661;28;19997;-69
2022/01/25 08:21:41;;;;;;;;;;;1.50;99.90;;;;;;5067146;28;19912;-69
2022/01/25 08:24:07;;;;;;;;;;;1.60;99.90;;;;;;5060857;28;19921;-71
2022/01/25 08:26:33;;;;;;;;;;;1.60;99.90;;;;;;5070326;28;20360;-69
2022/01/25 08:28:59;;;;;;;;;;;1.60;99.90;;;;;;5070407;28;19919;-68
2022/01/25 08:31:25;;;;;;;;;;;1.70;99.90;;;;;;5070938;28;19913;-67
2022/01/25 08:33:50;;;;;;;;;;;1.70;99.90;;;;;;5070016;28;19920;-69
2022/01/25 08:36:16;;;;;;;;;;;1.70;99.90;;;;;;5070064;28;20332;-70
2022/01/25 08:38:42;;;;;;;;;;;1.70;99.90;;;;;;5070616;28;19920;-69
2022/01/25 08:41:07;;;;;;;;;;;1.70;99.90;;;;;;5065774;28;20465;-71
2022/01/25 08:43:33;;;;;;;;;;;1.70;99.90;;;;;;5065594;28;19909;-69
2022/01/25 08:45:59;;;;;;;;;;;1.70;99.90;;;;;;5064334;28;20380;-69
2022/01/25 08:48:24;;;;;;;;;;;1.80;99.90;;;;;;5066371;28;19919;-68
2022/01/25 08:50:50;;;;;;;;;;;1.80;99.90;;;;;;5070101;28;19970;-70
2022/01/25 08:53:16;;;;;;;;;;;1.80;99.90;;;;;;5065325;28;19924;-70
2022/01/25 08:55:41;;;;;;;;;;;1.80;99.90;;;;;;5070498;28;20418;-70
2022/01/25 08:58:10;;;;;;;;;;;1.80;99.90;;;;;;5070776;28;19912;-70
2022/01/25 09:00:35;;;;;;;;;;;1.80;99.90;;;;;;5069726;28;20372;-70
2022/01/25 09:03:01;;;;;;;;;;;1.80;99.90;;;;;;5070020;28;19927;-70
2022/01/25 09:05:26;;;;;;;;;;;1.80;99.90;;;;;;5070902;28;19908;-70
2022/01/25 09:07:52;;;;;;;;;;;1.80;99.90;;;;;;5070339;28;19963;-71
2022/01/25 09:10:18;;;;;;;;;;;1.90;99.90;;;;;;5049775;28;19913;-71
2022/01/25 09:12:43;;;;;;;;;;;1.90;99.90;;;;;;5067216;28;20685;-71
2022/01/25 09:15:09;;;;;;;;;;;2.00;99.90;;;;;;5070020;28;20404;-70
2022/01/25 09:17:35;;;;;;;;;;;2.00;99.90;;;;;;5070402;28;19908;-71
2022/01/25 09:20:02;;;;;;;;;;;2.00;99.90;;;;;;5070473;28;19927;-71
2022/01/25 09:22:27;;;;;;;;;;;2.00;99.90;;;;;;5070632;28;19920;-70
2022/01/25 09:24:53;;;;;;;;;;;2.00;99.90;;;;;;5068312;28;19909;-69
2022/01/25 09:27:19;;;;;;;;;;;2.10;99.90;;;;;;5065642;28;20010;-69
2022/01/25 09:29:44;;;;;;;;;;;2.10;99.90;;;;;;5069692;28;20380;-70
2022/01/25 09:32:10;;;;;;;;;;;2.10;99.90;;;;;;5052071;28;20384;-69
2022/01/25 09:34:35;;;;;;;;;;;2.20;99.90;;;;;;5070494;28;19917;-70
2022/01/25 09:37:01;;;;;;;;;;;2.20;99.90;;;;;;5069832;28;19908;-70
2022/01/25 09:39:26;;;;;;;;;;;2.20;99.90;;;;;;5051909;28;19999;-69
2022/01/25 09:41:52;;;;;;;;;;;2.20;99.90;;;;;;5069602;28;19912;-69
2022/01/25 09:44:17;;;;;;;;;;;2.20;99.90;;;;;;5069344;28;19969;-70
2022/01/25 09:46:44;;;;;;;;;;;2.30;99.90;;;;;;5070887;28;19913;-70
2022/01/25 09:49:10;;;;;;;;;;;2.30;99.90;;;;;;5061709;28;19966;-69
2022/01/25 09:51:38;;;;;;;;;;;2.30;99.90;;;;;;5061762;28;19913;-70
2022/01/25 09:54:04;;;;;;;;;;;2.40;99.90;;;;;;5071402;28;19974;-70
2022/01/25 09:56:30;;;;;;;;;;;2.40;99.90;;;;;;5070423;28;19925;-71
2022/01/25 09:58:55;;;;;;;;;;;2.50;99.90;;;;;;5071625;28;20376;-70
2022/01/25 10:01:25;;;;;;;;;;;2.50;99.90;;;;;;5073484;28;19995;-70
2022/01/25 10:03:51;;;;;;;;;;;2.60;99.90;;;;;;5072265;28;19943;-70
2022/01/25 10:06:20;;;;;;;;;;;2.60;99.90;;;;;;5047112;28;19917;-70
2022/01/25 10:08:49;;;;;;;;;;;2.60;99.90;;;;;;5065479;28;19916;-70
2022/01/25 10:11:15;;;;;;;;;;;2.60;99.90;;;;;;5072503;28;19916;-69
2022/01/25 10:13:43;;;;;;;;;;;2.70;99.90;;;;;;5072934;28;20027;-70
2022/01/25 10:16:08;;;;;;;;;;;2.70;99.90;;;;;;5072414;28;19956;-70
2022/01/25 10:18:43;;;;;;;;;;;2.70;99.90;;;;;;5072542;28;19948;-69
2022/01/25 10:21:16;;;;;;;;;;;2.70;99.90;;;;;;5071855;28;19913;-69
2022/01/25 10:24:17;;;;;;;;;;;2.70;99.90;;;;;;5072608;28;19982;-69
2022/01/25 10:26:43;;;;;;;;;;;2.70;99.90;;;;;;4958416;28;19918;-70
2022/01/25 10:29:13;;;;;;;;;;;2.70;99.90;;;;;;4970340;28;19914;-70
2022/01/25 10:31:41;;;;;;;;;;;2.80;99.90;;;;;;4968436;28;19910;-70
2022/01/25 10:34:08;;;;;;;;;;;2.90;99.90;;;;;;4969297;28;19922;-70
2022/01/25 10:36:38;;;;;;;;;;;2.90;99.90;;;;;;4969901;28;19918;-70
2022/01/25 10:39:04;;;;;;;;;;;2.90;99.90;;;;;;4969473;28;19918;-68
2022/01/25 10:41:31;;;;;;;;;;;2.90;99.90;;;;;;4968606;28;19922;-71
2022/01/25 10:43:57;;;;;;;;;;;3.00;99.90;;;;;;4969826;28;19910;-71
2022/01/25 10:46:30;;;;;;;;;;;3.00;99.90;;;;;;4971697;28;19917;-71
2022/01/25 10:49:06;;;;;;;;;;;3.00;99.90;;;;;;4968802;28;19941;-71
2022/01/25 10:51:34;;;;;;;;;;;3.10;99.90;;;;;;4970154;28;19921;-70
2022/01/25 10:54:03;;;;;;;;;;;3.00;99.90;;;;;;4972676;28;19926;-70
2022/01/25 10:56:35;;;;;;;;;;;3.10;99.90;;;;;;4985215;28;19922;-69
2022/01/25 10:59:02;;;;;;;;;;;3.10;99.90;;;;;;4989135;28;19921;-69
2022/01/25 11:01:35;;;;;;;;;;;3.10;99.90;;;;;;5043496;28;19955;-69
2022/01/25 11:04:22;;;;;;;;;;;3.10;99.90;;;;;;5071195;28;19917;-69
2022/01/25 11:06:53;;;;;;;;;;;3.10;99.90;;;;;;5071213;28;19966;-69
2022/01/25 11:09:19;;;;;;;;;;;3.10;99.90;;;;;;5071701;28;19908;-70
2022/01/25 11:11:52;;;;;;;;;;;3.10;99.90;;;;;;5071477;28;20277;-70
2022/01/25 11:17:01;;;;;;;;;;;3.20;99.90;;;;;;5072026;28;19927;-69
2022/01/25 11:19:27;;;;;;;;;;;3.10;99.90;;;;;;5071906;28;20339;-68
2022/01/25 11:21:53;;;;;;;;;;;3.10;99.90;;;;;;5071252;28;20046;-69
2022/01/25 11:24:20;;;;;;;;;;;3.20;99.90;;;;;;5071000;28;19932;-70
2022/01/25 11:26:46;;;;;;;;;;;3.20;99.90;;;;;;5072232;28;19912;-69
2022/01/25 11:29:12;;;;;;;;;;;3.20;99.90;;;;;;5071532;28;19939;-69
2022/01/25 11:31:39;;;;;;;;;;;3.30;99.90;;;;;;5067844;28;20323;-68
2022/01/25 11:34:07;;;;;;;;;;;3.40;99.90;;;;;;5070997;28;19917;-71
2022/01/25 11:36:41;;;;;;;;;;;3.40;99.90;;;;;;5071056;28;19916;-70
2022/01/25 11:39:09;;;;;;;;;;;3.40;99.90;;;;;;5070887;28;19916;-70
2022/01/25 11:41:34;;;;;;;;;;;3.40;99.90;;;;;;5071129;28;19919;-70
2022/01/25 11:44:09;;;;;;;;;;;3.40;99.90;;;;;;5059969;28;19913;-67
2022/01/25 11:46:35;;;;;;;;;;;3.40;99.90;;;;;;5069387;28;20015;-68
2022/01/25 11:49:05;;;;;;;;;;;3.40;99.90;;;;;;5069504;28;19942;-69
2022/01/25 11:51:31;;;;;;;;;;;3.50;99.90;;;;;;5067198;28;20288;-70
2022/01/25 11:54:01;;;;;;;;;;;3.50;99.90;;;;;;5068459;28;19999;-68
2022/01/25 11:56:26;;;;;;;;;;;3.50;99.90;;;;;;5068561;28;19965;-69
2022/01/25 11:58:53;;;;;;;;;;;3.50;99.90;;;;;;5069195;28;20323;-69
2022/01/25 12:01:20;;;;;;;;;;;3.50;99.90;;;;;;5070433;28;19919;-70
2022/01/25 12:03:47;;;;;;;;;;;3.60;99.90;;;;;;5068761;28;20002;-69
2022/01/25 12:06:27;;;;;;;;;;;3.60;99.90;;;;;;5069103;28;20441;-69
2022/01/25 12:11:34;;;;;;;;;;;3.60;99.90;;;;;;5069560;28;20444;-68
2022/01/25 12:14:30;;;;;;;;;;;3.70;99.90;;;;;;5067759;28;19946;-68
2022/01/25 12:17:16;;;;;;;;;;;3.70;99.90;;;;;;5046681;28;19913;-68
2022/01/25 12:19:45;;;;;;;;;;;3.70;99.90;;;;;;5069822;28;20390;-70
2022/01/25 12:22:20;;;;;;;;;;;3.60;99.90;;;;;;5069029;28;19973;-69
2022/01/25 12:24:51;;;;;;;;;;;3.60;99.90;;;;;;5068939;28;19923;-69
2022/01/25 12:27:27;;;;;;;;;;;3.70;99.90;;;;;;5068747;28;19920;-69
2022/01/25 12:30:12;;;;;;;;;;;3.80;99.90;;;;;;5066109;28;19918;-69
2022/01/25 12:33:02;;;;;;;;;;;3.80;99.90;;;;;;5067872;28;20331;-69
2022/01/25 12:35:38;;;;;;;;;;;3.80;99.90;;;;;;5069127;28;20343;-69
2022/01/25 12:38:27;;;;;;;;;;;3.80;99.90;;;;;;5068230;28;19939;-68
2022/01/25 12:40:56;;;;;;;;;;;3.70;99.90;;;;;;5055341;28;19912;-69
2022/01/25 12:43:24;;;;;;;;;;;3.70;99.90;;;;;;5069408;28;19916;-68
2022/01/25 12:45:52;;;;;;;;;;;3.70;99.90;;;;;;5065574;28;20315;-68
2022/01/25 12:48:22;;;;;;;;;;;3.80;99.90;;;;;;5068394;28;19936;-68
2022/01/25 12:50:50;;;;;;;;;;;3.70;99.90;;;;;;5064743;28;19924;-69
2022/01/25 12:53:18;;;;;;;;;;;3.70;99.90;;;;;;5068207;28;19923;-68
2022/01/25 12:55:46;;;;;;;;;;;3.70;99.90;;;;;;5069636;28;19920;-68
2022/01/25 12:58:11;;;;;;;;;;;3.70;99.90;;;;;;5069416;28;19920;-69
2022/01/25 13:00:45;;;;;;;;;;;3.80;99.90;;;;;;5068535;28;19923;-68
2022/01/25 13:03:11;;;;;;;;;;;3.80;99.90;;;;;;5068713;28;19959;-68
2022/01/25 13:05:45;;;;;;;;;;;3.80;99.90;;;;;;5068226;28;20239;-69
2022/01/25 13:08:14;;;;;;;;;;;3.90;99.90;;;;;;5067756;28;19920;-69
2022/01/25 13:10:40;;;;;;;;;;;4.00;99.90;;;;;;5068891;28;20300;-67
2022/01/25 13:13:21;;;;;;;;;;;4.00;99.90;;;;;;5050013;28;20012;-69
2022/01/25 13:18:12;;;;;;;;;;;4.10;99.90;;;;;;5068129;28;20035;-69
2022/01/25 13:20:39;;;;;;;;;;;4.00;99.90;;;;;;5068308;28;20269;-68
2022/01/25 13:23:05;;;;;;;;;;;4.10;99.90;;;;;;5067905;28;19912;-68
2022/01/25 13:25:52;;;;;;;;;;;4.10;99.90;;;;;;5069728;28;19912;-67
2022/01/25 13:28:33;;;;;;;;;;;4.10;99.90;;;;;;5069349;28;20420;-67
2022/01/25 13:31:00;;;;;;;;;;;4.10;99.90;;;;;;5070521;28;19971;-69
2022/01/25 13:33:25;;;;;;;;;;;4.10;99.90;;;;;;5071922;28;19963;-68
2022/01/25 13:35:53;;;;;;;;;;;4.10;99.90;;;;;;5071928;28;19952;-69
2022/01/25 13:38:22;;;;;;;;;;;4.10;99.90;;;;;;5071711;28;19916;-69
2022/01/25 13:45:57;;;;;;;;;;;4.10;99.90;;;;;;5069807;28;19920;-69
2022/01/25 13:48:24;;;;;;;;;;;4.10;99.90;;;;;;5070133;28;19939;-67
2022/01/25 13:50:55;;;;;;;;;;;4.10;99.90;;;;;;5071273;28;19912;-68
2022/01/25 13:53:20;;;;;;;;;;;4.10;99.90;;;;;;5071050;28;19913;-68
2022/01/25 13:55:48;;;;;;;;;;;4.10;99.90;;;;;;5072050;28;19934;-69
2022/01/25 13:58:25;;;;;;;;;;;4.10;99.90;;;;;;5072270;28;20385;-69
2022/01/25 14:00:51;;;;;;;;;;;4.10;99.90;;;;;;5069072;28;20377;-69
2022/01/25 14:03:17;;;;;;;;;;;4.10;99.90;;;;;;5071368;28;19924;-69
2022/01/25 14:05:43;;;;;;;;;;;4.00;99.90;;;;;;5071736;28;19920;-70
2022/01/25 14:08:09;;;;;;;;;;;4.10;99.90;;;;;;5071500;28;19913;-70
2022/01/25 14:10:34;;;;;;;;;;;4.10;99.90;;;;;;5054594;28;19916;-69
2022/01/25 14:24:18;;;;;;;;;;;4.10;99.90;;;;;;5053255;28;19919;-69
2022/01/25 14:26:44;;;;;;;;;;;4.10;99.90;;;;;;5071656;28;19913;-70
2022/01/25 14:29:17;;;;;;;;;;;4.00;99.90;;;;;;5070643;28;19927;-69
2022/01/25 14:31:43;;;;;;;;;;;4.00;99.90;;;;;;5071869;28;19916;-70
2022/01/25 14:34:10;;;;;;;;;;;4.00;99.90;;;;;;5070994;28;19969;-68
2022/01/25 14:36:36;;;;;;;;;;;4.00;99.90;;;;;;5070688;28;19948;-69
2022/01/25 14:39:03;;;;;;;;;;;3.90;99.90;;;;;;5070485;28;19996;-70
2022/01/25 14:41:32;;;;;;;;;;;3.90;99.90;;;;;;5071208;28;20281;-69
2022/01/25 14:44:01;;;;;;;;;;;3.90;99.90;;;;;;5070724;28;19913;-70
2022/01/25 14:46:34;;;;;;;;;;;4.00;99.90;;;;;;5071653;28;19909;-70
2022/01/25 14:49:03;;;;;;;;;;;3.90;99.90;;;;;;5069763;28;20385;-70
2022/01/25 14:51:40;;;;;;;;;;;3.90;99.90;;;;;;5070743;28;20011;-71
2022/01/25 14:54:07;;;;;;;;;;;3.80;99.90;;;;;;5070197;28;20003;-68
2022/01/25 14:56:34;;;;;;;;;;;3.70;99.90;;;;;;5067581;28;19925;-69
2022/01/25 15:01:33;;;;;;;;;;;3.70;99.90;;;;;;5070678;28;19912;-69
2022/01/25 15:03:59;;;;;;;;;;;3.70;99.90;;;;;;5070082;28;19924;-70
2022/01/25 15:06:25;;;;;;;;;;;3.60;99.90;;;;;;5062816;28;19917;-70
2022/01/25 15:08:51;;;;;;;;;;;3.60;99.90;;;;;;5070732;28;20409;-68
2022/01/25 15:11:18;;;;;;;;;;;3.70;99.90;;;;;;5070456;28;19959;-67
2022/01/25 15:13:44;;;;;;;;;;;3.70;99.90;;;;;;5071141;28;19931;-68
2022/01/25 15:16:10;;;;;;;;;;;3.70;99.90;;;;;;5068803;28;19916;-69
2022/01/25 15:18:38;;;;;;;;;;;3.70;99.90;;;;;;5068983;28;19947;-58
2022/01/25 15:21:05;;;;;;;;;;;3.60;99.90;;;;;;5069319;28;19924;-59
2022/01/25 15:23:33;;;;;;;;;;;3.50;99.90;;;;;;5050677;28;19916;-60
2022/01/25 15:26:11;;;;;;;;;;;3.60;99.90;;;;;;5069819;28;19962;-60
2022/01/25 15:28:41;;;;;;;;;;;3.50;99.90;;;;;;5071603;28;20369;-59
2022/01/25 15:31:09;;;;;;;;;;;3.50;99.90;;;;;;5069937;28;19919;-59
2022/01/25 15:33:34;;;;;;;;;;;3.50;99.90;;;;;;5069723;28;19924;-60
2022/01/25 15:36:00;;;;;;;;;;;3.50;99.90;;;;;;5069826;28;19936;-59
2022/01/25 15:38:26;;;;;;;;;;;3.50;99.90;;;;;;5069807;28;19919;-56
2022/01/25 15:40:52;;;;;;;;;;;3.40;99.90;;;;;;5069960;28;19916;-58
2022/01/25 15:43:22;;;;;;;;;;;3.50;99.90;;;;;;5070031;28;19919;-59
2022/01/25 15:46:01;;;;;;;;;;;3.50;99.90;;;;;;5067075;28;19920;-60
2022/01/25 15:48:27;;;;;;;;;;;3.40;99.90;;;;;;5069027;28;20907;-57
2022/01/25 15:50:53;;;;;;;;;;;3.40;99.90;;;;;;5067317;28;19912;-60
2022/01/25 15:53:18;;;;;;;;;;;3.30;99.90;;;;;;5068594;28;20380;-59
2022/01/25 15:55:44;;;;;;;;;;;3.30;99.90;;;;;;5070081;28;20415;-60
2022/01/25 15:58:09;;;;;;;;;;;3.30;99.90;;;;;;5069498;28;19912;-59
2022/01/25 16:00:35;;;;;;;;;;;3.30;99.90;;;;;;5068440;28;20295;-59
2022/01/25 16:03:00;;;;;;;;;;;3.40;99.90;;;;;;5068653;28;19919;-60
2022/01/25 16:05:26;;;;;;;;;;;3.40;99.90;;;;;;5068192;28;19944;-59
2022/01/25 16:07:53;;;;;;;;;;;3.50;99.90;;;;;;5069141;28;20384;-60
2022/01/25 16:10:20;;;;;;;;;;;3.50;99.90;;;;;;5069684;28;19926;-60
2022/01/25 16:12:45;;;;;;;;;;;3.50;99.90;;;;;;5068047;28;19935;-58
2022/01/25 16:15:11;;;;;;;;;;;3.50;99.90;;;;;;5067959;28;19916;-59
2022/01/25 16:17:36;;;;;;;;;;;3.50;99.90;;;;;;5068461;28;19912;-59
2022/01/25 16:20:02;;;;;;;;;;;3.50;99.90;;;;;;5067889;28;20296;-59
2022/01/25 16:22:28;;;;;;;;;;;3.50;99.90;;;;;;5051925;28;20016;-59
2022/01/25 16:24:54;;;;;;;;;;;3.50;99.90;;;;;;5046859;28;20015;-59
2022/01/25 16:27:19;;;;;;;;;;;3.50;99.90;;;;;;5053188;28;20046;-58
2022/01/25 16:29:45;;;;;;;;;;;3.50;99.90;;;;;;5068416;28;19993;-59
2022/01/25 16:32:12;;;;;;;;;;;3.40;99.90;;;;;;5046861;28;19917;-58
2022/01/25 16:34:40;;;;;;;;;;;3.30;99.90;;;;;;5069566;28;19917;-59
2022/01/25 16:37:06;;;;;;;;;;;3.30;99.90;;;;;;5067846;28;19912;-59
2022/01/25 16:39:32;;;;;;;;;;;3.30;99.90;;;;;;5067497;28;19916;-59
2022/01/25 16:41:59;;;;;;;;;;;3.30;99.90;;;;;;5066241;28;19913;-61
2022/01/25 16:44:25;;;;;;;;;;;3.30;99.90;;;;;;5065740;28;20341;-62
2022/01/25 16:46:51;;;;;;;;;;;3.30;99.90;;;;;;5050334;28;19959;-60
2022/01/25 16:49:16;;;;;;;;;;;3.30;99.90;;;;;;5068027;28;19909;-59
2022/01/25 16:51:42;;;;;;;;;;;3.30;99.90;;;;;;5043418;28;19973;-62
2022/01/25 16:54:07;;;;;;;;;;;3.30;99.90;;;;;;5061867;28;20318;-63